createdAt,value
2019-06-20T00:01:37.350Z,72.92
2019-06-20T00:04:04.381Z,71.06
2019-06-20T00:06:31.208Z,69.77
2019-06-20T00:08:57.953Z,68.74
2019-06-20T00:11:24.648Z,70.03
2019-06-20T00:13:51.372Z,69.89
2019-06-20T00:16:18.074Z,69.36
2019-06-20T00:18:45.123Z,69.30
2019-06-20T00:21:12.179Z,69.63
2019-06-20T00:23:38.895Z,70.68
2019-06-20T00:26:05.600Z,70.90
2019-06-20T00:28:32.367Z,70.73
2019-06-20T00:30:59.421Z,70.29
2019-06-20T00:33:26.160Z,70.18
2019-06-20T00:35:52.863Z,69.75
2019-06-20T00:38:19.553Z,69.00
2019-06-20T00:40:46.235Z,69.85
2019-06-20T00:43:17.413Z,69.58
2019-06-20T00:45:41.555Z,68.73
2019-06-20T00:48:08.406Z,69.46
2019-06-20T00:50:35.322Z,69.36
2019-06-20T00:53:02.019Z,70.15
2019-06-20T00:55:28.771Z,69.53
2019-06-20T00:57:55.489Z,69.08
2019-06-20T01:00:22.427Z,69.21
2019-06-20T01:02:51.715Z,69.44
2019-06-20T01:05:18.556Z,69.04
2019-06-20T01:07:45.266Z,69.16
2019-06-20T01:10:12.029Z,69.38
2019-06-20T01:12:38.734Z,70.27
2019-06-20T01:15:05.707Z,70.38
2019-06-20T01:17:32.781Z,70.47
2019-06-20T01:20:00.595Z,70.70
2019-06-20T01:22:27.622Z,70.34
2019-06-20T01:24:54.332Z,70.31
2019-06-20T01:27:21.353Z,70.27
2019-06-20T01:29:48.196Z,70.10
2019-06-20T01:32:14.933Z,70.18
2019-06-20T01:34:41.690Z,70.79
2019-06-20T01:37:08.549Z,70.95
2019-06-20T01:39:35.302Z,71.06
2019-06-20T01:42:02.012Z,70.89
2019-06-20T01:44:28.731Z,70.93
2019-06-20T01:46:55.438Z,70.58
2019-06-20T01:49:22.159Z,70.80
2019-06-20T01:51:49.170Z,70.76
2019-06-20T01:54:15.868Z,71.00
2019-06-20T01:56:42.560Z,71.00
2019-06-20T01:59:09.567Z,70.68
2019-06-20T02:01:36.267Z,71.07
2019-06-20T02:04:03.010Z,71.71
2019-06-20T02:06:29.655Z,71.06
2019-06-20T02:08:56.381Z,71.17
2019-06-20T02:11:23.067Z,71.15
2019-06-20T02:14:03.558Z,71.09
2019-06-20T02:16:18.386Z,71.07
2019-06-20T02:18:45.097Z,71.24
2019-06-20T02:21:11.801Z,71.21
2019-06-20T02:23:38.542Z,71.32
2019-06-20T02:26:05.252Z,71.40
2019-06-20T02:28:31.961Z,71.32
2019-06-20T02:30:58.663Z,70.89
2019-06-20T02:33:25.371Z,71.41
2019-06-20T02:35:52.082Z,71.75
2019-06-20T02:38:19.163Z,71.84
2019-06-20T02:40:45.869Z,71.50
2019-06-20T02:43:12.889Z,71.75
2019-06-20T02:45:40.187Z,72.69
2019-06-20T02:48:06.901Z,73.43
2019-06-20T02:50:33.585Z,74.02
2019-06-20T02:53:00.307Z,73.84
2019-06-20T02:55:27.016Z,72.43
2019-06-20T02:57:53.710Z,72.59
2019-06-20T03:00:34.029Z,72.98
2019-06-20T03:03:00.788Z,73.29
2019-06-20T03:05:27.441Z,72.77
2019-06-20T03:07:54.129Z,73.06
2019-06-20T03:10:20.865Z,72.98
2019-06-20T03:12:47.533Z,72.83
2019-06-20T03:15:14.537Z,72.96
2019-06-20T03:17:41.237Z,73.36
2019-06-20T03:20:10.070Z,74.17
2019-06-20T03:22:36.719Z,73.76
2019-06-20T03:25:03.909Z,74.24
2019-06-20T03:27:31.066Z,74.60
2019-06-20T03:29:57.777Z,74.02
2019-06-20T03:32:27.431Z,73.75
2019-06-20T03:34:54.222Z,74.54
2019-06-20T03:37:20.925Z,75.25
2019-06-20T03:39:47.627Z,74.88
2019-06-20T03:42:14.313Z,74.94
2019-06-20T03:44:40.983Z,74.22
2019-06-20T03:47:07.803Z,73.61
2019-06-20T03:49:34.471Z,73.55
2019-06-20T03:52:01.436Z,73.62
2019-06-20T03:54:28.146Z,73.92
2019-06-20T03:56:54.826Z,74.51
2019-06-20T03:59:21.526Z,74.51
2019-06-20T04:01:49.206Z,74.32
2019-06-20T04:04:16.086Z,74.92
2019-06-20T04:06:43.464Z,74.08
2019-06-20T04:09:10.181Z,74.98
2019-06-20T04:11:37.228Z,75.52
2019-06-20T04:14:03.936Z,74.97
2019-06-20T04:16:30.645Z,75.09
2019-06-20T04:18:57.361Z,74.46
2019-06-20T04:21:24.049Z,73.89
2019-06-20T04:23:50.734Z,74.40
2019-06-20T04:26:17.681Z,73.98
2019-06-20T04:28:44.381Z,74.12
2019-06-20T04:31:11.090Z,73.35
2019-06-20T04:33:37.780Z,73.25
2019-06-20T04:36:04.878Z,73.69
2019-06-20T04:38:31.886Z,73.39
2019-06-20T04:40:58.616Z,73.09
2019-06-20T04:43:25.294Z,73.56
2019-06-20T04:46:04.119Z,73.42
2019-06-20T04:48:30.819Z,72.92
2019-06-20T04:50:57.511Z,73.81
2019-06-20T04:53:24.212Z,73.50
2019-06-20T04:55:50.894Z,73.79
2019-06-20T04:58:17.614Z,73.39
2019-06-20T05:00:44.332Z,74.08
2019-06-20T05:03:11.082Z,74.99
2019-06-20T05:05:37.766Z,75.25
2019-06-20T05:08:04.561Z,75.17
2019-06-20T05:10:31.270Z,74.91
2019-06-20T05:12:57.976Z,75.09
2019-06-20T05:15:24.685Z,75.17
2019-06-20T05:17:51.767Z,74.89
2019-06-20T05:20:18.474Z,74.43
2019-06-20T05:22:45.493Z,74.27
2019-06-20T05:25:14.412Z,73.53
2019-06-20T05:27:41.128Z,73.52
2019-06-20T05:30:09.013Z,73.09
2019-06-20T05:32:35.735Z,73.35
2019-06-20T05:35:03.183Z,73.53
2019-06-20T05:37:30.135Z,73.29
2019-06-20T05:39:56.899Z,73.52
2019-06-20T05:42:23.629Z,74.48
2019-06-20T05:44:50.347Z,74.41
2019-06-20T05:47:17.042Z,74.13
2019-06-20T05:49:43.877Z,74.84
2019-06-20T05:52:10.582Z,75.08
2019-06-20T05:54:37.610Z,75.06
2019-06-20T05:57:04.763Z,74.99
2019-06-20T05:59:31.935Z,74.87
2019-06-20T06:01:58.674Z,74.35
2019-06-20T06:04:26.406Z,74.13
2019-06-20T06:06:53.228Z,74.01
2019-06-20T06:09:19.973Z,74.04
2019-06-20T06:11:46.680Z,74.27
2019-06-20T06:14:13.888Z,74.05
2019-06-20T06:16:44.232Z,75.40
2019-06-20T06:19:11.680Z,74.75
2019-06-20T06:21:41.407Z,75.17
2019-06-20T06:24:11.388Z,74.86
2019-06-20T06:26:38.113Z,74.44
2019-06-20T06:29:04.906Z,72.72
2019-06-20T06:31:31.593Z,72.83
2019-06-20T06:33:58.276Z,72.67
2019-06-20T06:36:24.988Z,71.53
2019-06-20T06:38:51.671Z,71.30
2019-06-20T06:41:18.762Z,70.90
2019-06-20T06:43:45.464Z,70.37
2019-06-20T06:46:12.159Z,69.61
2019-06-20T06:48:38.861Z,69.69
2019-06-20T06:51:05.595Z,70.74
2019-06-20T06:53:32.318Z,70.20
2019-06-20T06:55:59.018Z,69.47
2019-06-20T06:58:26.112Z,69.05
2019-06-20T07:00:52.841Z,69.11
2019-06-20T07:03:19.923Z,68.35
2019-06-20T07:05:46.641Z,67.64
2019-06-20T07:08:13.706Z,67.27
2019-06-20T07:10:40.788Z,66.58
2019-06-20T07:13:07.543Z,66.75
2019-06-20T07:15:34.373Z,66.82
2019-06-20T07:18:01.070Z,66.11
2019-06-20T07:20:27.842Z,65.87
2019-06-20T07:22:54.657Z,65.94
2019-06-20T07:25:21.974Z,65.72
2019-06-20T07:27:48.691Z,65.44
2019-06-20T07:30:15.424Z,65.88
2019-06-20T07:32:42.112Z,64.92
2019-06-20T07:35:08.904Z,64.55
2019-06-20T07:37:35.914Z,64.85
2019-06-20T07:40:03.814Z,65.57
2019-06-20T07:42:30.562Z,62.81
2019-06-20T07:44:57.237Z,62.31
2019-06-20T07:47:23.948Z,62.89
2019-06-20T07:49:50.647Z,63.03
2019-06-20T07:52:17.338Z,63.16
2019-06-20T07:54:44.332Z,63.84
2019-06-20T07:57:11.450Z,64.44
2019-06-20T07:59:38.268Z,63.46
2019-06-20T08:02:04.989Z,62.30
2019-06-20T08:04:31.801Z,61.47
2019-06-20T08:06:58.624Z,59.41
2019-06-20T08:09:43.662Z,60.05
2019-06-20T08:11:54.070Z,59.09
2019-06-20T08:14:20.846Z,59.20
2019-06-20T08:16:49.069Z,58.23
2019-06-20T08:19:15.811Z,58.78
2019-06-20T08:21:44.210Z,59.41
2019-06-20T08:24:11.139Z,59.60
2019-06-20T08:26:38.334Z,60.00
2019-06-20T08:29:18.680Z,58.77
2019-06-20T08:31:34.141Z,59.74
2019-06-20T08:34:02.163Z,59.34
2019-06-20T08:36:29.158Z,58.98
2019-06-20T08:38:56.930Z,58.46
2019-06-20T08:41:24.276Z,56.94
2019-06-20T08:43:53.568Z,55.66
2019-06-20T08:46:20.332Z,55.74
2019-06-20T08:48:47.650Z,56.29
2019-06-20T08:51:14.818Z,56.13
2019-06-20T08:53:41.761Z,55.51
2019-06-20T08:56:08.585Z,56.28
2019-06-20T08:58:35.297Z,56.28
2019-06-20T09:03:30.664Z,55.72
2019-06-20T09:05:58.241Z,55.32
2019-06-20T09:08:25.299Z,54.79
2019-06-20T09:10:54.104Z,55.51
2019-06-20T09:13:21.088Z,55.48
2019-06-20T09:15:47.837Z,55.03
2019-06-20T09:18:14.577Z,55.61
2019-06-20T09:20:41.702Z,55.24
2019-06-20T09:23:08.464Z,54.90
2019-06-20T09:25:35.253Z,55.16
2019-06-20T09:28:02.686Z,55.69
2019-06-20T09:30:29.501Z,54.84
2019-06-20T09:32:56.265Z,55.61
2019-06-20T09:35:22.994Z,56.23
2019-06-20T09:37:51.744Z,56.40
2019-06-20T09:40:19.907Z,56.17
2019-06-20T09:42:46.669Z,54.89
2019-06-20T09:45:16.983Z,53.52
2019-06-20T09:47:43.734Z,54.31
2019-06-20T09:50:10.617Z,54.40
2019-06-20T09:52:37.347Z,53.33
2019-06-20T09:55:04.199Z,52.87
2019-06-20T09:57:30.933Z,53.05
2019-06-20T10:00:07.687Z,52.37
2019-06-20T10:02:27.032Z,51.64
2019-06-20T10:04:54.486Z,51.80
2019-06-20T10:07:21.334Z,51.75
2019-06-20T10:09:49.829Z,51.55
2019-06-20T10:12:16.644Z,51.81
2019-06-20T10:14:43.349Z,50.66
2019-06-20T10:17:10.038Z,50.89
2019-06-20T10:19:36.746Z,51.65
2019-06-20T10:22:03.561Z,51.40
2019-06-20T10:24:30.377Z,51.22
2019-06-20T10:26:58.001Z,49.96
2019-06-20T10:29:24.884Z,50.13
2019-06-20T10:31:53.175Z,49.94
2019-06-20T10:34:19.949Z,49.03
2019-06-20T10:36:48.041Z,49.48
2019-06-20T10:39:14.901Z,49.52
2019-06-20T10:41:41.995Z,51.07
2019-06-20T10:44:08.683Z,52.10
2019-06-20T10:46:35.415Z,53.04
2019-06-20T10:49:02.541Z,55.66
2019-06-20T10:51:49.615Z,58.04
2019-06-20T10:54:16.585Z,60.22
2019-06-20T10:56:45.843Z,60.25
2019-06-20T10:59:11.979Z,62.33
2019-06-20T11:01:39.829Z,63.38
2019-06-20T11:04:07.364Z,64.53
2019-06-20T11:06:34.146Z,64.53
2019-06-20T11:09:01.298Z,62.31
2019-06-20T11:11:28.042Z,62.49
2019-06-20T11:13:56.669Z,62.31
2019-06-20T11:16:23.671Z,61.15
2019-06-20T11:18:50.453Z,61.80
2019-06-20T11:21:17.236Z,60.52
2019-06-20T11:23:45.221Z,60.05
2019-06-20T11:26:12.029Z,59.01
2019-06-20T11:28:39.296Z,59.64
2019-06-20T11:31:06.817Z,59.74
2019-06-20T11:33:36.485Z,59.13
2019-06-20T11:36:03.492Z,58.99
2019-06-20T11:38:30.223Z,56.15
2019-06-20T11:40:57.082Z,54.37
2019-06-20T11:43:23.831Z,54.70
2019-06-20T11:45:50.560Z,53.15
2019-06-20T11:48:17.316Z,53.84
2019-06-20T11:50:44.511Z,52.74
2019-06-20T11:53:11.304Z,52.04
2019-06-20T11:55:38.011Z,50.56
2019-06-20T11:58:04.737Z,50.27
2019-06-20T12:00:34.136Z,50.34
2019-06-20T12:03:01.273Z,48.93
2019-06-20T12:05:28.027Z,48.11
2019-06-20T12:07:54.892Z,49.55
2019-06-20T12:10:21.942Z,48.80
2019-06-20T12:12:59.562Z,48.49
2019-06-20T12:15:26.647Z,49.11
2019-06-20T12:17:53.523Z,49.22
2019-06-20T12:20:20.270Z,49.06
2019-06-20T12:22:46.969Z,48.94
2019-06-20T12:25:15.856Z,47.87
2019-06-20T12:27:43.115Z,48.02
2019-06-20T12:30:10.163Z,47.86
2019-06-20T12:32:36.915Z,47.61
2019-06-20T12:35:03.745Z,46.93
2019-06-20T12:37:30.825Z,47.49
2019-06-20T12:39:57.531Z,46.99
2019-06-20T12:42:27.503Z,47.59
2019-06-20T12:44:54.299Z,47.59
2019-06-20T12:47:22.938Z,47.16
2019-06-20T12:49:50.701Z,47.42
2019-06-20T12:52:17.953Z,46.91
2019-06-20T12:54:44.941Z,46.43
2019-06-20T12:57:12.058Z,45.69
2019-06-20T12:59:40.719Z,43.98
2019-06-20T13:02:09.952Z,45.53
2019-06-20T13:04:38.290Z,45.77
2019-06-20T13:07:05.425Z,47.02
2019-06-20T13:09:32.306Z,46.20
2019-06-20T13:11:59.481Z,45.46
2019-06-20T13:14:26.219Z,44.73
2019-06-20T13:16:53.171Z,40.77
2019-06-20T13:19:20.019Z,42.82
2019-06-20T13:21:48.599Z,40.80
2019-06-20T13:24:15.440Z,40.34
2019-06-20T13:26:42.490Z,39.85
2019-06-20T13:29:09.257Z,38.88
2019-06-20T13:31:51.849Z,39.32
2019-06-20T13:34:05.300Z,39.14
2019-06-20T13:36:32.043Z,39.80
2019-06-20T13:38:58.807Z,40.54
2019-06-20T13:41:25.851Z,41.77
2019-06-20T13:43:52.646Z,42.32
2019-06-20T13:46:19.736Z,40.80
2019-06-20T13:48:47.506Z,42.32
2019-06-20T13:51:14.388Z,41.94
2019-06-20T13:53:42.617Z,41.72
2019-06-20T13:56:09.497Z,40.67
2019-06-20T13:58:37.177Z,40.10
2019-06-20T14:01:03.907Z,40.45
2019-06-20T14:03:30.678Z,40.98
2019-06-20T14:05:57.461Z,41.88
2019-06-20T14:08:24.994Z,42.58
2019-06-20T14:10:52.271Z,42.68
2019-06-20T14:15:59.465Z,44.39
2019-06-20T14:18:27.675Z,45.14
2019-06-20T14:20:55.262Z,44.75
2019-06-20T14:23:22.124Z,44.28
2019-06-20T14:25:49.172Z,44.19
2019-06-20T14:28:15.992Z,44.34
2019-06-20T14:30:44.469Z,45.07
2019-06-20T14:33:11.532Z,44.97
2019-06-20T14:35:38.231Z,45.05
2019-06-20T14:38:05.297Z,46.03
2019-06-20T14:40:32.030Z,46.04
2019-06-20T14:42:58.737Z,46.66
2019-06-20T14:45:28.299Z,47.78
2019-06-20T14:47:55.329Z,48.43
2019-06-20T14:50:22.543Z,54.12
2019-06-20T14:52:50.015Z,56.48
2019-06-20T14:55:18.299Z,57.22
2019-06-20T14:57:47.007Z,58.90
2019-06-20T15:00:16.019Z,59.33
2019-06-20T15:02:45.838Z,57.56
2019-06-20T15:05:13.706Z,55.05
2019-06-20T15:07:40.418Z,53.39
2019-06-20T15:10:07.191Z,50.97
2019-06-20T15:12:36.791Z,51.38
2019-06-20T15:15:03.787Z,50.16
2019-06-20T15:17:30.495Z,47.70
2019-06-20T15:19:57.497Z,46.82
2019-06-20T15:22:24.208Z,46.57
2019-06-20T15:24:53.407Z,45.77
2019-06-20T15:27:19.664Z,44.97
2019-06-20T15:29:47.700Z,45.18
2019-06-20T15:32:15.036Z,43.45
2019-06-20T15:34:42.143Z,44.69
2019-06-20T15:37:08.820Z,44.88
2019-06-20T15:39:35.565Z,44.55
2019-06-20T15:42:02.343Z,43.55
2019-06-20T15:44:29.393Z,42.40
2019-06-20T15:46:56.091Z,41.99
2019-06-20T15:49:25.835Z,40.74
2019-06-20T15:51:52.583Z,40.37
2019-06-20T15:54:19.744Z,39.40
2019-06-20T15:56:46.447Z,40.81
2019-06-20T15:59:13.209Z,39.67
2019-06-20T16:01:39.929Z,39.33
2019-06-20T16:04:06.671Z,38.91
2019-06-20T16:06:34.159Z,39.38
2019-06-20T16:09:00.897Z,40.72
2019-06-20T16:11:27.599Z,40.78
2019-06-20T16:13:54.327Z,40.51
2019-06-20T16:16:21.322Z,40.06
2019-06-20T16:18:48.320Z,39.79
2019-06-20T16:21:15.392Z,41.05
2019-06-20T16:23:42.218Z,39.80
2019-06-20T16:26:08.966Z,39.10
2019-06-20T16:28:35.665Z,38.69
2019-06-20T16:31:10.084Z,37.99
2019-06-20T16:33:32.223Z,37.72
2019-06-20T16:35:58.993Z,38.42
2019-06-20T16:38:25.697Z,37.74
2019-06-20T16:40:52.440Z,37.58
2019-06-20T16:43:19.188Z,36.82
2019-06-20T16:45:45.893Z,37.67
2019-06-20T16:48:12.645Z,38.07
2019-06-20T16:50:39.554Z,38.83
2019-06-20T16:53:06.355Z,38.72
2019-06-20T16:55:33.123Z,38.98
2019-06-20T16:57:59.800Z,39.92
2019-06-20T17:00:26.527Z,40.78
2019-06-20T17:02:53.241Z,40.71
2019-06-20T17:05:20.055Z,40.50
2019-06-20T17:07:49.944Z,39.57
2019-06-20T17:10:18.580Z,39.17
2019-06-20T17:12:45.416Z,39.31
2019-06-20T17:15:12.362Z,40.12
2019-06-20T17:17:39.134Z,40.38
2019-06-20T17:20:05.896Z,41.00
2019-06-20T17:22:32.987Z,41.96
2019-06-20T17:24:59.697Z,42.28
2019-06-20T17:27:26.378Z,42.74
2019-06-20T17:29:53.150Z,43.69
2019-06-20T17:32:19.984Z,43.93
2019-06-20T17:34:46.839Z,44.23
2019-06-20T17:37:13.556Z,44.56
2019-06-20T17:39:40.285Z,44.52
2019-06-20T17:42:08.958Z,44.17
2019-06-20T17:44:37.142Z,44.39
2019-06-20T17:47:03.843Z,44.76
2019-06-20T17:49:33.386Z,45.14
2019-06-20T17:52:00.123Z,45.57
2019-06-20T17:54:26.847Z,46.62
2019-06-20T17:56:54.098Z,46.92
2019-06-20T17:59:22.850Z,47.23
2019-06-20T18:01:49.543Z,47.46
2019-06-20T18:04:16.483Z,47.66
2019-06-20T18:06:43.246Z,47.55
2019-06-20T18:09:10.085Z,48.06
2019-06-20T18:11:37.004Z,49.25
2019-06-20T18:14:04.008Z,48.86
2019-06-20T18:16:30.759Z,48.89
2019-06-20T18:18:57.795Z,49.08
2019-06-20T18:21:24.632Z,49.10
2019-06-20T18:23:51.413Z,48.92
2019-06-20T18:26:18.166Z,48.99
2019-06-20T18:28:44.911Z,49.27
2019-06-20T18:31:11.665Z,49.78
2019-06-20T18:33:38.405Z,50.26
2019-06-20T18:36:05.182Z,51.15
2019-06-20T18:38:31.852Z,51.11
2019-06-20T18:40:58.563Z,51.46
2019-06-20T18:43:25.470Z,51.51
2019-06-20T18:45:52.158Z,50.48
2019-06-20T18:48:18.922Z,50.43
2019-06-20T18:50:47.097Z,50.86
2019-06-20T18:53:14.524Z,51.05
2019-06-20T18:55:41.242Z,52.25
2019-06-20T18:58:08.027Z,52.02
2019-06-20T19:00:35.339Z,51.90
2019-06-20T19:03:02.425Z,51.87
2019-06-20T19:05:29.698Z,52.28
2019-06-20T19:07:57.274Z,52.46
2019-06-20T19:10:24.033Z,52.63
2019-06-20T19:12:50.735Z,53.20
2019-06-20T19:15:17.467Z,53.56
2019-06-20T19:17:44.167Z,54.38
2019-06-20T19:20:11.141Z,54.20
2019-06-20T19:22:37.855Z,53.20
2019-06-20T19:25:04.841Z,53.01
2019-06-20T19:27:45.019Z,52.83
2019-06-20T19:30:00.258Z,52.99
2019-06-20T19:32:27.156Z,53.11
2019-06-20T19:35:02.081Z,53.44
2019-06-20T19:37:22.529Z,53.11
2019-06-20T19:39:49.885Z,52.98
2019-06-20T19:42:20.664Z,53.90
2019-06-20T19:44:47.663Z,54.30
2019-06-20T19:47:17.368Z,53.71
2019-06-20T19:49:44.086Z,53.54
2019-06-20T19:52:10.896Z,53.87
2019-06-20T19:54:37.647Z,53.86
2019-06-20T19:57:04.327Z,53.99
2019-06-20T19:59:31.060Z,54.08
2019-06-20T20:01:57.795Z,54.07
2019-06-20T20:04:26.444Z,53.95
2019-06-20T20:06:53.912Z,54.12
2019-06-20T20:09:20.668Z,54.12
2019-06-20T20:11:47.489Z,54.31
2019-06-20T20:14:14.254Z,54.83
2019-06-20T20:16:43.991Z,56.41
2019-06-20T20:19:12.915Z,57.54
2019-06-20T20:21:39.627Z,57.36
2019-06-20T20:24:07.113Z,57.17
2019-06-20T20:26:34.167Z,57.45
2019-06-20T20:29:01.000Z,57.51
2019-06-20T20:31:27.883Z,57.75
2019-06-20T20:33:54.659Z,57.08
2019-06-20T20:36:25.198Z,56.31
2019-06-20T20:38:50.346Z,55.93
2019-06-20T20:41:17.808Z,55.62
2019-06-20T20:43:44.546Z,55.73
2019-06-20T20:46:11.595Z,56.20
2019-06-20T20:48:38.309Z,56.21
2019-06-20T20:51:05.052Z,55.94
2019-06-20T20:53:31.860Z,55.98
2019-06-20T20:56:02.304Z,56.22
2019-06-20T20:58:29.778Z,57.40
2019-06-20T21:01:16.436Z,58.44
2019-06-20T21:03:43.235Z,59.18
2019-06-20T21:06:09.950Z,59.38
2019-06-20T21:08:36.692Z,59.55
2019-06-20T21:11:03.447Z,59.40
2019-06-20T21:13:30.164Z,58.96
2019-06-20T21:15:57.302Z,58.61
2019-06-20T21:18:24.372Z,58.40
2019-06-20T21:20:51.064Z,58.30
2019-06-20T21:23:17.796Z,58.24
2019-06-20T21:25:44.521Z,59.36
2019-06-20T21:28:11.257Z,60.18
2019-06-20T21:30:37.959Z,60.59
2019-06-20T21:33:04.714Z,60.98
2019-06-20T21:35:31.476Z,60.97
2019-06-20T21:37:58.252Z,60.67
2019-06-20T21:40:25.108Z,60.17
2019-06-20T21:42:53.870Z,59.90
2019-06-20T21:45:20.589Z,60.00
2019-06-20T21:47:47.318Z,60.32
2019-06-20T21:50:14.086Z,60.87
2019-06-20T21:52:40.797Z,60.88
2019-06-20T21:55:07.519Z,61.00
2019-06-20T21:57:34.238Z,61.18
2019-06-20T22:00:01.415Z,61.39
2019-06-20T22:02:28.679Z,61.71
2019-06-20T22:04:55.466Z,61.59
2019-06-20T22:07:22.237Z,61.89
2019-06-20T22:09:49.067Z,61.79
2019-06-20T22:12:15.779Z,61.76
2019-06-20T22:14:42.520Z,61.67
2019-06-20T22:17:09.278Z,61.67
2019-06-20T22:19:36.117Z,61.00
2019-06-20T22:22:05.572Z,61.09
2019-06-20T22:24:34.014Z,61.21
2019-06-20T22:27:00.718Z,61.47
2019-06-20T22:29:27.775Z,61.46
2019-06-20T22:31:54.510Z,61.26
2019-06-20T22:34:21.253Z,61.53
2019-06-20T22:36:48.925Z,61.65
2019-06-20T22:39:15.658Z,61.82
2019-06-20T22:41:42.806Z,61.90
2019-06-20T22:44:09.521Z,62.13
2019-06-20T22:46:36.268Z,62.29
2019-06-20T22:49:03.064Z,62.41
2019-06-20T22:51:29.925Z,62.74
2019-06-20T22:53:57.092Z,63.59
2019-06-20T22:56:23.810Z,64.30
2019-06-20T22:58:50.526Z,64.33
2019-06-20T23:01:17.298Z,64.44
2019-06-20T23:03:44.131Z,64.13
2019-06-20T23:06:10.957Z,64.00
2019-06-20T23:08:38.032Z,64.26
2019-06-20T23:11:04.769Z,64.44
2019-06-20T23:13:31.504Z,64.57
2019-06-20T23:15:58.253Z,64.60
2019-06-20T23:18:24.993Z,64.78
2019-06-20T23:21:04.262Z,64.64
2019-06-20T23:23:20.653Z,64.98
2019-06-20T23:25:50.150Z,64.82
2019-06-20T23:28:16.868Z,64.34
2019-06-20T23:30:43.612Z,64.40
2019-06-20T23:33:10.424Z,64.62
2019-06-20T23:35:37.168Z,64.81
2019-06-20T23:38:03.901Z,64.97
2019-06-20T23:40:30.677Z,65.27
2019-06-20T23:42:57.380Z,65.40
2019-06-20T23:45:24.184Z,65.77
2019-06-20T23:47:51.369Z,66.80
2019-06-20T23:50:18.094Z,67.49
2019-06-20T23:52:47.901Z,68.03
2019-06-20T23:55:14.670Z,67.33
2019-06-20T23:57:41.363Z,66.42
